sensor_id;sensor_type;location;lat;lon;timestamp;P1;durP1;ratioP1;P2;durP2;ratioP2
47804;SDS011;33568;45.286;9.900;2023-04-24T00:02:57;10.23;;;6.07;;
47804;SDS011;33568;45.286;9.900;2023-04-24T00:07:50;7.40;;;5.53;;
47804;SDS011;33568;45.286;9.900;2023-04-24T00:10:18;9.20;;;5.65;;
47804;SDS011;33568;45.286;9.900;2023-04-24T00:12:44;9.10;;;5.90;;
47804;SDS011;33568;45.286;9.900;2023-04-24T00:15:11;11.25;;;6.22;;
47804;SDS011;33568;45.286;9.900;2023-04-24T00:17:37;8.88;;;6.03;;
47804;SDS011;33568;45.286;9.900;2023-04-24T00:20:04;7.63;;;5.75;;
47804;SDS011;33568;45.286;9.900;2023-04-24T00:22:32;10.95;;;5.68;;
47804;SDS011;33568;45.286;9.900;2023-04-24T00:24:59;7.13;;;5.65;;
47804;SDS011;33568;45.286;9.900;2023-04-24T00:27:25;10.32;;;6.45;;
47804;SDS011;33568;45.286;9.900;2023-04-24T00:32:18;8.95;;;5.18;;
47804;SDS011;33568;45.286;9.900;2023-04-24T00:37:11;9.73;;;6.65;;
47804;SDS011;33568;45.286;9.900;2023-04-24T00:39:37;7.78;;;5.55;;
47804;SDS011;33568;45.286;9.900;2023-04-24T00:42:04;7.97;;;5.70;;
47804;SDS011;33568;45.286;9.900;2023-04-24T00:44:35;9.50;;;5.72;;
47804;SDS011;33568;45.286;9.900;2023-04-24T00:47:01;6.80;;;4.55;;
47804;SDS011;33568;45.286;9.900;2023-04-24T00:49:28;12.00;;;4.75;;
47804;SDS011;33568;45.286;9.900;2023-04-24T00:51:55;6.50;;;5.15;;
47804;SDS011;33568;45.286;9.900;2023-04-24T00:54:22;5.72;;;4.57;;
47804;SDS011;33568;45.286;9.900;2023-04-24T00:56:50;5.07;;;4.20;;
47804;SDS011;33568;45.286;9.900;2023-04-24T00:59:17;7.40;;;4.32;;
47804;SDS011;33568;45.286;9.900;2023-04-24T01:01:44;5.60;;;4.10;;
47804;SDS011;33568;45.286;9.900;2023-04-24T01:04:11;5.03;;;4.20;;
47804;SDS011;33568;45.286;9.900;2023-04-24T01:06:39;6.25;;;4.55;;
47804;SDS011;33568;45.286;9.900;2023-04-24T01:09:08;8.25;;;4.65;;
47804;SDS011;33568;45.286;9.900;2023-04-24T01:11:37;10.68;;;5.05;;
47804;SDS011;33568;45.286;9.900;2023-04-24T01:14:04;8.35;;;4.75;;
47804;SDS011;33568;45.286;9.900;2023-04-24T01:16:31;6.88;;;4.55;;
47804;SDS011;33568;45.286;9.900;2023-04-24T01:21:24;7.43;;;4.72;;
47804;SDS011;33568;45.286;9.900;2023-04-24T01:23:56;6.20;;;4.40;;
47804;SDS011;33568;45.286;9.900;2023-04-24T01:26:23;6.28;;;4.53;;
47804;SDS011;33568;45.286;9.900;2023-04-24T01:28:52;6.82;;;4.40;;
47804;SDS011;33568;45.286;9.900;2023-04-24T01:31:19;14.93;;;4.95;;
47804;SDS011;33568;45.286;9.900;2023-04-24T01:33:46;7.15;;;4.55;;
47804;SDS011;33568;45.286;9.900;2023-04-24T01:36:13;7.72;;;4.85;;
47804;SDS011;33568;45.286;9.900;2023-04-24T01:38:40;8.80;;;4.40;;
47804;SDS011;33568;45.286;9.900;2023-04-24T01:43:32;6.78;;;4.90;;
47804;SDS011;33568;45.286;9.900;2023-04-24T01:48:25;11.30;;;6.30;;
47804;SDS011;33568;45.286;9.900;2023-04-24T01:50:51;8.77;;;5.78;;
47804;SDS011;33568;45.286;9.900;2023-04-24T01:55:44;10.10;;;5.53;;
47804;SDS011;33568;45.286;9.900;2023-04-24T01:58:12;13.20;;;6.38;;
47804;SDS011;33568;45.286;9.900;2023-04-24T02:00:39;10.45;;;5.88;;
47804;SDS011;33568;45.286;9.900;2023-04-24T02:05:31;9.77;;;6.60;;
47804;SDS011;33568;45.286;9.900;2023-04-24T02:10:24;10.02;;;6.32;;
47804;SDS011;33568;45.286;9.900;2023-04-24T02:12:51;12.85;;;7.65;;
47804;SDS011;33568;45.286;9.900;2023-04-24T02:15:17;11.00;;;6.53;;
47804;SDS011;33568;45.286;9.900;2023-04-24T02:17:43;10.95;;;7.25;;
47804;SDS011;33568;45.286;9.900;2023-04-24T02:22:37;10.85;;;6.13;;
47804;SDS011;33568;45.286;9.900;2023-04-24T02:27:32;8.05;;;6.70;;
47804;SDS011;33568;45.286;9.900;2023-04-24T02:32:24;7.90;;;6.30;;
47804;SDS011;33568;45.286;9.900;2023-04-24T02:37:17;13.90;;;7.18;;
47804;SDS011;33568;45.286;9.900;2023-04-24T02:39:43;9.48;;;6.32;;
47804;SDS011;33568;45.286;9.900;2023-04-24T02:44:36;11.05;;;6.55;;
47804;SDS011;33568;45.286;9.900;2023-04-24T02:49:30;9.38;;;6.60;;
47804;SDS011;33568;45.286;9.900;2023-04-24T02:54:22;9.98;;;6.47;;
47804;SDS011;33568;45.286;9.900;2023-04-24T02:56:49;7.65;;;6.57;;
47804;SDS011;33568;45.286;9.900;2023-04-24T02:59:16;8.40;;;6.32;;
47804;SDS011;33568;45.286;9.900;2023-04-24T03:04:08;9.13;;;6.05;;
47804;SDS011;33568;45.286;9.900;2023-04-24T03:06:36;7.75;;;5.93;;
47804;SDS011;33568;45.286;9.900;2023-04-24T03:09:02;8.10;;;5.70;;
47804;SDS011;33568;45.286;9.900;2023-04-24T03:11:29;7.90;;;5.95;;
47804;SDS011;33568;45.286;9.900;2023-04-24T03:13:55;7.95;;;5.63;;
47804;SDS011;33568;45.286;9.900;2023-04-24T03:16:22;8.23;;;6.70;;
47804;SDS011;33568;45.286;9.900;2023-04-24T03:18:48;7.38;;;6.20;;
47804;SDS011;33568;45.286;9.900;2023-04-24T03:21:15;7.43;;;6.13;;
47804;SDS011;33568;45.286;9.900;2023-04-24T03:23:43;10.20;;;6.25;;
47804;SDS011;33568;45.286;9.900;2023-04-24T03:26:10;8.02;;;5.95;;
47804;SDS011;33568;45.286;9.900;2023-04-24T03:28:41;8.65;;;6.80;;
47804;SDS011;33568;45.286;9.900;2023-04-24T03:31:08;8.73;;;6.72;;
47804;SDS011;33568;45.286;9.900;2023-04-24T03:33:36;10.50;;;6.65;;
47804;SDS011;33568;45.286;9.900;2023-04-24T03:38:36;9.00;;;6.78;;
47804;SDS011;33568;45.286;9.900;2023-04-24T03:41:28;9.82;;;6.93;;
47804;SDS011;33568;45.286;9.900;2023-04-24T03:46:42;9.48;;;7.40;;
47804;SDS011;33568;45.286;9.900;2023-04-24T03:51:39;8.55;;;6.95;;
47804;SDS011;33568;45.286;9.900;2023-04-24T03:56:42;9.60;;;7.55;;
47804;SDS011;33568;45.286;9.900;2023-04-24T03:59:09;9.63;;;7.47;;
47804;SDS011;33568;45.286;9.900;2023-04-24T04:01:36;9.30;;;7.72;;
47804;SDS011;33568;45.286;9.900;2023-04-24T04:04:12;9.13;;;7.28;;
47804;SDS011;33568;45.286;9.900;2023-04-24T04:06:39;11.00;;;7.80;;
47804;SDS011;33568;45.286;9.900;2023-04-24T04:09:06;8.75;;;7.47;;
47804;SDS011;33568;45.286;9.900;2023-04-24T04:11:35;9.48;;;7.32;;
47804;SDS011;33568;45.286;9.900;2023-04-24T04:14:01;8.70;;;7.55;;
47804;SDS011;33568;45.286;9.900;2023-04-24T04:16:28;11.32;;;8.20;;
47804;SDS011;33568;45.286;9.900;2023-04-24T04:19:00;8.98;;;7.13;;
47804;SDS011;33568;45.286;9.900;2023-04-24T04:21:29;8.23;;;7.45;;
47804;SDS011;33568;45.286;9.900;2023-04-24T04:26:37;10.18;;;7.13;;
47804;SDS011;33568;45.286;9.900;2023-04-24T04:29:06;9.77;;;7.47;;
47804;SDS011;33568;45.286;9.900;2023-04-24T04:31:36;11.25;;;8.65;;
47804;SDS011;33568;45.286;9.900;2023-04-24T04:34:07;9.68;;;7.68;;
47804;SDS011;33568;45.286;9.900;2023-04-24T04:36:35;9.38;;;7.88;;
47804;SDS011;33568;45.286;9.900;2023-04-24T04:39:11;8.02;;;7.13;;
47804;SDS011;33568;45.286;9.900;2023-04-24T04:41:47;9.57;;;7.60;;
47804;SDS011;33568;45.286;9.900;2023-04-24T04:44:15;11.05;;;7.50;;
47804;SDS011;33568;45.286;9.900;2023-04-24T04:46:42;11.32;;;7.40;;
47804;SDS011;33568;45.286;9.900;2023-04-24T04:49:32;8.40;;;6.90;;
47804;SDS011;33568;45.286;9.900;2023-04-24T04:51:59;12.77;;;7.47;;
47804;SDS011;33568;45.286;9.900;2023-04-24T04:54:27;11.52;;;7.90;;
47804;SDS011;33568;45.286;9.900;2023-04-24T04:56:54;8.68;;;7.78;;
47804;SDS011;33568;45.286;9.900;2023-04-24T04:59:21;10.68;;;7.65;;
47804;SDS011;33568;45.286;9.900;2023-04-24T05:01:52;8.48;;;7.68;;
47804;SDS011;33568;45.286;9.900;2023-04-24T05:04:18;8.57;;;7.63;;
47804;SDS011;33568;45.286;9.900;2023-04-24T05:06:45;10.65;;;7.65;;
47804;SDS011;33568;45.286;9.900;2023-04-24T05:09:13;10.88;;;7.97;;
47804;SDS011;33568;45.286;9.900;2023-04-24T05:11:47;11.55;;;8.10;;
47804;SDS011;33568;45.286;9.900;2023-04-24T05:14:13;8.70;;;7.75;;
47804;SDS011;33568;45.286;9.900;2023-04-24T05:16:42;11.07;;;8.52;;
47804;SDS011;33568;45.286;9.900;2023-04-24T05:19:09;9.60;;;8.60;;
47804;SDS011;33568;45.286;9.900;2023-04-24T05:21:40;13.10;;;9.70;;
47804;SDS011;33568;45.286;9.900;2023-04-24T05:24:08;10.45;;;8.75;;
47804;SDS011;33568;45.286;9.900;2023-04-24T05:26:53;9.32;;;8.25;;
47804;SDS011;33568;45.286;9.900;2023-04-24T05:29:24;9.77;;;8.25;;
47804;SDS011;33568;45.286;9.900;2023-04-24T05:31:53;12.02;;;9.23;;
47804;SDS011;33568;45.286;9.900;2023-04-24T05:34:20;10.43;;;9.40;;
47804;SDS011;33568;45.286;9.900;2023-04-24T05:36:50;9.73;;;8.73;;
47804;SDS011;33568;45.286;9.900;2023-04-24T05:39:17;11.93;;;8.93;;
47804;SDS011;33568;45.286;9.900;2023-04-24T05:41:43;9.23;;;8.32;;
47804;SDS011;33568;45.286;9.900;2023-04-24T05:44:10;13.02;;;8.38;;
47804;SDS011;33568;45.286;9.900;2023-04-24T05:49:02;11.60;;;8.98;;
47804;SDS011;33568;45.286;9.900;2023-04-24T05:51:31;9.50;;;8.60;;
47804;SDS011;33568;45.286;9.900;2023-04-24T05:53:58;10.32;;;7.68;;
47804;SDS011;33568;45.286;9.900;2023-04-24T05:56:25;11.48;;;8.73;;
47804;SDS011;33568;45.286;9.900;2023-04-24T05:58:52;10.38;;;8.70;;
47804;SDS011;33568;45.286;9.900;2023-04-24T06:01:19;12.35;;;9.18;;
47804;SDS011;33568;45.286;9.900;2023-04-24T06:03:53;10.25;;;7.97;;
47804;SDS011;33568;45.286;9.900;2023-04-24T06:08:46;10.57;;;9.57;;
47804;SDS011;33568;45.286;9.900;2023-04-24T06:13:40;10.43;;;9.40;;
47804;SDS011;33568;45.286;9.900;2023-04-24T06:16:25;13.23;;;9.90;;
47804;SDS011;33568;45.286;9.900;2023-04-24T06:18:58;15.68;;;10.80;;
47804;SDS011;33568;45.286;9.900;2023-04-24T06:21:25;12.45;;;10.40;;
47804;SDS011;33568;45.286;9.900;2023-04-24T06:23:51;14.52;;;11.38;;
47804;SDS011;33568;45.286;9.900;2023-04-24T06:28:44;16.50;;;11.15;;
47804;SDS011;33568;45.286;9.900;2023-04-24T06:36:04;12.60;;;11.27;;
47804;SDS011;33568;45.286;9.900;2023-04-24T06:38:32;13.50;;;11.48;;
47804;SDS011;33568;45.286;9.900;2023-04-24T06:40:59;14.50;;;12.13;;
47804;SDS011;33568;45.286;9.900;2023-04-24T06:45:52;12.25;;;11.10;;
47804;SDS011;33568;45.286;9.900;2023-04-24T06:48:19;12.68;;;11.15;;
47804;SDS011;33568;45.286;9.900;2023-04-24T06:50:45;17.75;;;11.38;;
47804;SDS011;33568;45.286;9.900;2023-04-24T06:53:12;13.68;;;10.70;;
47804;SDS011;33568;45.286;9.900;2023-04-24T06:55:40;13.15;;;11.27;;
47804;SDS011;33568;45.286;9.900;2023-04-24T06:58:06;12.98;;;11.32;;
47804;SDS011;33568;45.286;9.900;2023-04-24T07:00:33;15.82;;;11.23;;
47804;SDS011;33568;45.286;9.900;2023-04-24T07:03:00;13.88;;;10.90;;
47804;SDS011;33568;45.286;9.900;2023-04-24T07:07:53;12.13;;;11.02;;
47804;SDS011;33568;45.286;9.900;2023-04-24T07:10:20;18.05;;;11.70;;
47804;SDS011;33568;45.286;9.900;2023-04-24T07:12:46;13.82;;;12.43;;
47804;SDS011;33568;45.286;9.900;2023-04-24T07:17:39;13.98;;;11.65;;
47804;SDS011;33568;45.286;9.900;2023-04-24T07:20:09;15.10;;;10.95;;
47804;SDS011;33568;45.286;9.900;2023-04-24T07:22:37;14.90;;;12.43;;
47804;SDS011;33568;45.286;9.900;2023-04-24T07:25:04;15.27;;;11.52;;
47804;SDS011;33568;45.286;9.900;2023-04-24T07:27:31;14.07;;;11.23;;
47804;SDS011;33568;45.286;9.900;2023-04-24T07:29:57;14.90;;;12.20;;
47804;SDS011;33568;45.286;9.900;2023-04-24T07:34:50;12.73;;;11.20;;
47804;SDS011;33568;45.286;9.900;2023-04-24T07:39:43;11.75;;;10.45;;
47804;SDS011;33568;45.286;9.900;2023-04-24T07:44:35;12.85;;;9.68;;
47804;SDS011;33568;45.286;9.900;2023-04-24T07:49:28;11.05;;;9.45;;
47804;SDS011;33568;45.286;9.900;2023-04-24T07:54:20;11.00;;;9.88;;
47804;SDS011;33568;45.286;9.900;2023-04-24T07:59:13;12.18;;;9.88;;
47804;SDS011;33568;45.286;9.900;2023-04-24T08:01:40;11.93;;;10.10;;
47804;SDS011;33568;45.286;9.900;2023-04-24T08:04:07;12.15;;;10.98;;
47804;SDS011;33568;45.286;9.900;2023-04-24T08:06:33;12.43;;;11.25;;
47804;SDS011;33568;45.286;9.900;2023-04-24T08:09:00;12.07;;;10.88;;
47804;SDS011;33568;45.286;9.900;2023-04-24T08:11:26;14.77;;;11.05;;
47804;SDS011;33568;45.286;9.900;2023-04-24T08:13:53;13.32;;;11.18;;
47804;SDS011;33568;45.286;9.900;2023-04-24T08:16:20;13.38;;;11.30;;
47804;SDS011;33568;45.286;9.900;2023-04-24T08:18:46;12.77;;;11.32;;
47804;SDS011;33568;45.286;9.900;2023-04-24T08:23:43;15.40;;;11.43;;
47804;SDS011;33568;45.286;9.900;2023-04-24T08:26:09;11.60;;;10.40;;
47804;SDS011;33568;45.286;9.900;2023-04-24T08:28:37;14.98;;;11.50;;
47804;SDS011;33568;45.286;9.900;2023-04-24T08:31:03;11.93;;;9.95;;
47804;SDS011;33568;45.286;9.900;2023-04-24T08:33:30;13.07;;;10.55;;
47804;SDS011;33568;45.286;9.900;2023-04-24T08:36:03;13.00;;;11.32;;
47804;SDS011;33568;45.286;9.900;2023-04-24T08:38:31;14.57;;;10.90;;
47804;SDS011;33568;45.286;9.900;2023-04-24T08:40:58;12.15;;;10.88;;
47804;SDS011;33568;45.286;9.900;2023-04-24T08:43:26;12.02;;;10.82;;
47804;SDS011;33568;45.286;9.900;2023-04-24T08:45:54;11.02;;;9.93;;
47804;SDS011;33568;45.286;9.900;2023-04-24T08:48:22;10.95;;;9.50;;
47804;SDS011;33568;45.286;9.900;2023-04-24T08:50:52;9.68;;;8.35;;
47804;SDS011;33568;45.286;9.900;2023-04-24T08:53:20;10.65;;;9.25;;
47804;SDS011;33568;45.286;9.900;2023-04-24T08:55:47;12.68;;;9.63;;
47804;SDS011;33568;45.286;9.900;2023-04-24T08:58:15;10.38;;;8.68;;
47804;SDS011;33568;45.286;9.900;2023-04-24T09:00:42;9.98;;;8.93;;
47804;SDS011;33568;45.286;9.900;2023-04-24T09:03:13;7.70;;;7.00;;
47804;SDS011;33568;45.286;9.900;2023-04-24T09:05:46;15.13;;;9.20;;
47804;SDS011;33568;45.286;9.900;2023-04-24T09:08:13;13.00;;;9.05;;
47804;SDS011;33568;45.286;9.900;2023-04-24T09:10:41;11.40;;;10.35;;
47804;SDS011;33568;45.286;9.900;2023-04-24T09:13:08;10.50;;;9.50;;
47804;SDS011;33568;45.286;9.900;2023-04-24T09:15:36;11.07;;;9.38;;
47804;SDS011;33568;45.286;9.900;2023-04-24T09:18:03;9.98;;;8.77;;
47804;SDS011;33568;45.286;9.900;2023-04-24T09:20:30;9.98;;;8.93;;
47804;SDS011;33568;45.286;9.900;2023-04-24T09:22:57;13.25;;;9.18;;
47804;SDS011;33568;45.286;9.900;2023-04-24T09:25:31;10.18;;;9.15;;
47804;SDS011;33568;45.286;9.900;2023-04-24T09:28:02;9.75;;;8.75;;
47804;SDS011;33568;45.286;9.900;2023-04-24T09:30:30;10.32;;;8.10;;
47804;SDS011;33568;45.286;9.900;2023-04-24T09:33:13;8.50;;;7.70;;
47804;SDS011;33568;45.286;9.900;2023-04-24T09:35:50;11.90;;;8.98;;
47804;SDS011;33568;45.286;9.900;2023-04-24T09:40:43;9.73;;;8.75;;
47804;SDS011;33568;45.286;9.900;2023-04-24T09:43:10;10.55;;;7.13;;
47804;SDS011;33568;45.286;9.900;2023-04-24T09:45:38;7.97;;;6.43;;
47804;SDS011;33568;45.286;9.900;2023-04-24T09:48:05;7.05;;;6.35;;
47804;SDS011;33568;45.286;9.900;2023-04-24T09:50:35;10.95;;;7.10;;
47804;SDS011;33568;45.286;9.900;2023-04-24T09:53:02;7.90;;;7.10;;
47804;SDS011;33568;45.286;9.900;2023-04-24T09:55:30;10.20;;;7.68;;
47804;SDS011;33568;45.286;9.900;2023-04-24T09:57:57;7.63;;;6.78;;
47804;SDS011;33568;45.286;9.900;2023-04-24T10:00:31;7.65;;;6.75;;
47804;SDS011;33568;45.286;9.900;2023-04-24T10:02:59;7.30;;;6.50;;
47804;SDS011;33568;45.286;9.900;2023-04-24T10:05:28;8.48;;;6.22;;
47804;SDS011;33568;45.286;9.900;2023-04-24T10:07:57;9.38;;;5.65;;
47804;SDS011;33568;45.286;9.900;2023-04-24T10:10:36;7.22;;;6.60;;
47804;SDS011;33568;45.286;9.900;2023-04-24T10:13:05;5.90;;;5.32;;
47804;SDS011;33568;45.286;9.900;2023-04-24T10:15:33;8.70;;;6.03;;
47804;SDS011;33568;45.286;9.900;2023-04-24T10:18:00;6.95;;;6.05;;
47804;SDS011;33568;45.286;9.900;2023-04-24T10:20:29;6.55;;;5.95;;
47804;SDS011;33568;45.286;9.900;2023-04-24T10:22:56;8.68;;;6.68;;
47804;SDS011;33568;45.286;9.900;2023-04-24T10:25:25;7.55;;;6.40;;
47804;SDS011;33568;45.286;9.900;2023-04-24T10:27:53;5.20;;;4.57;;
47804;SDS011;33568;45.286;9.900;2023-04-24T10:30:26;3.80;;;3.42;;
47804;SDS011;33568;45.286;9.900;2023-04-24T10:32:54;5.68;;;5.10;;
47804;SDS011;33568;45.286;9.900;2023-04-24T10:35:21;7.28;;;6.00;;
47804;SDS011;33568;45.286;9.900;2023-04-24T10:37:56;8.50;;;7.10;;
47804;SDS011;33568;45.286;9.900;2023-04-24T10:40:32;9.07;;;7.18;;
47804;SDS011;33568;45.286;9.900;2023-04-24T10:43:07;8.30;;;6.00;;
47804;SDS011;33568;45.286;9.900;2023-04-24T10:45:37;5.97;;;4.80;;
47804;SDS011;33568;45.286;9.900;2023-04-24T10:48:04;6.00;;;5.50;;
47804;SDS011;33568;45.286;9.900;2023-04-24T10:50:43;7.00;;;6.07;;
47804;SDS011;33568;45.286;9.900;2023-04-24T10:53:17;7.40;;;6.70;;
47804;SDS011;33568;45.286;9.900;2023-04-24T10:55:46;8.55;;;6.57;;
47804;SDS011;33568;45.286;9.900;2023-04-24T10:58:21;9.02;;;6.80;;
47804;SDS011;33568;45.286;9.900;2023-04-24T11:00:58;9.15;;;6.05;;
47804;SDS011;33568;45.286;9.900;2023-04-24T11:06:01;8.55;;;6.50;;
47804;SDS011;33568;45.286;9.900;2023-04-24T11:08:29;7.25;;;6.55;;
47804;SDS011;33568;45.286;9.900;2023-04-24T11:11:09;8.80;;;6.85;;
47804;SDS011;33568;45.286;9.900;2023-04-24T11:18:52;8.40;;;7.68;;
47804;SDS011;33568;45.286;9.900;2023-04-24T11:21:30;9.18;;;6.80;;
47804;SDS011;33568;45.286;9.900;2023-04-24T11:27:14;6.68;;;6.03;;
47804;SDS011;33568;45.286;9.900;2023-04-24T11:29:59;6.55;;;5.88;;
47804;SDS011;33568;45.286;9.900;2023-04-24T11:32:28;7.45;;;6.55;;
47804;SDS011;33568;45.286;9.900;2023-04-24T11:34:59;7.38;;;6.53;;
47804;SDS011;33568;45.286;9.900;2023-04-24T11:37:27;7.25;;;6.28;;
47804;SDS011;33568;45.286;9.900;2023-04-24T11:40:06;7.68;;;6.97;;
47804;SDS011;33568;45.286;9.900;2023-04-24T11:42:35;8.23;;;7.47;;
47804;SDS011;33568;45.286;9.900;2023-04-24T11:45:06;9.82;;;6.78;;
47804;SDS011;33568;45.286;9.900;2023-04-24T11:47:33;10.20;;;6.90;;
47804;SDS011;33568;45.286;9.900;2023-04-24T11:50:00;8.60;;;6.32;;
47804;SDS011;33568;45.286;9.900;2023-04-24T11:52:29;8.73;;;6.65;;
47804;SDS011;33568;45.286;9.900;2023-04-24T11:54:56;6.47;;;5.88;;
47804;SDS011;33568;45.286;9.900;2023-04-24T11:57:24;6.75;;;5.50;;
47804;SDS011;33568;45.286;9.900;2023-04-24T11:59:54;5.13;;;4.63;;
47804;SDS011;33568;45.286;9.900;2023-04-24T12:02:21;4.95;;;4.55;;
47804;SDS011;33568;45.286;9.900;2023-04-24T12:04:48;5.97;;;5.38;;
47804;SDS011;33568;45.286;9.900;2023-04-24T12:07:15;9.32;;;5.43;;
47804;SDS011;33568;45.286;9.900;2023-04-24T12:12:08;6.28;;;5.68;;
47804;SDS011;33568;45.286;9.900;2023-04-24T12:17:35;6.72;;;5.85;;
47804;SDS011;33568;45.286;9.900;2023-04-24T12:20:06;8.60;;;4.60;;
47804;SDS011;33568;45.286;9.900;2023-04-24T12:22:48;5.45;;;4.80;;
47804;SDS011;33568;45.286;9.900;2023-04-24T12:25:15;5.93;;;5.35;;
47804;SDS011;33568;45.286;9.900;2023-04-24T12:27:46;7.55;;;5.93;;
47804;SDS011;33568;45.286;9.900;2023-04-24T12:30:17;6.65;;;5.93;;
47804;SDS011;33568;45.286;9.900;2023-04-24T12:32:48;7.68;;;4.85;;
47804;SDS011;33568;45.286;9.900;2023-04-24T12:35:19;5.70;;;4.30;;
47804;SDS011;33568;45.286;9.900;2023-04-24T12:37:47;4.22;;;3.83;;
47804;SDS011;33568;45.286;9.900;2023-04-24T12:40:14;6.32;;;2.78;;
47804;SDS011;33568;45.286;9.900;2023-04-24T12:42:44;3.70;;;2.80;;
47804;SDS011;33568;45.286;9.900;2023-04-24T12:45:12;5.60;;;2.97;;
47804;SDS011;33568;45.286;9.900;2023-04-24T12:47:40;3.83;;;3.22;;
47804;SDS011;33568;45.286;9.900;2023-04-24T12:50:11;2.85;;;2.55;;
47804;SDS011;33568;45.286;9.900;2023-04-24T12:52:39;1.88;;;1.67;;
47804;SDS011;33568;45.286;9.900;2023-04-24T12:55:07;4.43;;;1.55;;
47804;SDS011;33568;45.286;9.900;2023-04-24T12:57:35;2.17;;;1.98;;
47804;SDS011;33568;45.286;9.900;2023-04-24T13:00:03;1.85;;;1.75;;
47804;SDS011;33568;45.286;9.900;2023-04-24T13:02:31;3.95;;;2.78;;
47804;SDS011;33568;45.286;9.900;2023-04-24T13:04:58;2.95;;;1.70;;
47804;SDS011;33568;45.286;9.900;2023-04-24T13:07:24;2.80;;;2.30;;
47804;SDS011;33568;45.286;9.900;2023-04-24T13:09:51;3.15;;;1.77;;
47804;SDS011;33568;45.286;9.900;2023-04-24T13:12:21;1.38;;;1.20;;
47804;SDS011;33568;45.286;9.900;2023-04-24T13:14:49;3.00;;;1.02;;
47804;SDS011;33568;45.286;9.900;2023-04-24T13:17:16;5.50;;;1.50;;
47804;SDS011;33568;45.286;9.900;2023-04-24T13:19:42;3.60;;;1.73;;
47804;SDS011;33568;45.286;9.900;2023-04-24T13:22:10;1.92;;;0.98;;
47804;SDS011;33568;45.286;9.900;2023-04-24T13:24:37;1.58;;;1.15;;
47804;SDS011;33568;45.286;9.900;2023-04-24T13:27:06;1.25;;;1.02;;
47804;SDS011;33568;45.286;9.900;2023-04-24T13:29:33;3.75;;;1.27;;
47804;SDS011;33568;45.286;9.900;2023-04-24T13:32:00;1.27;;;1.17;;
47804;SDS011;33568;45.286;9.900;2023-04-24T13:34:26;2.45;;;1.00;;
47804;SDS011;33568;45.286;9.900;2023-04-24T13:36:53;1.33;;;0.80;;
47804;SDS011;33568;45.286;9.900;2023-04-24T13:39:21;0.70;;;0.70;;
47804;SDS011;33568;45.286;9.900;2023-04-24T13:41:48;3.58;;;0.65;;
47804;SDS011;33568;45.286;9.900;2023-04-24T13:44:18;0.60;;;0.60;;
47804;SDS011;33568;45.286;9.900;2023-04-24T13:46:46;0.60;;;0.60;;
47804;SDS011;33568;45.286;9.900;2023-04-24T13:49:13;0.50;;;0.50;;
47804;SDS011;33568;45.286;9.900;2023-04-24T13:51:41;0.93;;;0.63;;
47804;SDS011;33568;45.286;9.900;2023-04-24T13:54:08;0.50;;;0.50;;
47804;SDS011;33568;45.286;9.900;2023-04-24T13:56:35;1.75;;;0.70;;
47804;SDS011;33568;45.286;9.900;2023-04-24T13:59:02;1.00;;;0.50;;
47804;SDS011;33568;45.286;9.900;2023-04-24T14:01:28;0.90;;;0.90;;
47804;SDS011;33568;45.286;9.900;2023-04-24T14:03:55;1.45;;;0.68;;
47804;SDS011;33568;45.286;9.900;2023-04-24T14:06:21;0.98;;;0.60;;
47804;SDS011;33568;45.286;9.900;2023-04-24T14:08:48;0.60;;;0.60;;
47804;SDS011;33568;45.286;9.900;2023-04-24T14:11:16;1.08;;;0.98;;
47804;SDS011;33568;45.286;9.900;2023-04-24T14:13:43;1.23;;;0.50;;
47804;SDS011;33568;45.286;9.900;2023-04-24T14:16:10;2.45;;;0.75;;
47804;SDS011;33568;45.286;9.900;2023-04-24T14:18:37;1.80;;;0.88;;
47804;SDS011;33568;45.286;9.900;2023-04-24T14:21:04;1.13;;;0.95;;
47804;SDS011;33568;45.286;9.900;2023-04-24T14:23:31;1.10;;;0.70;;
47804;SDS011;33568;45.286;9.900;2023-04-24T14:25:58;1.02;;;0.60;;
47804;SDS011;33568;45.286;9.900;2023-04-24T14:28:25;0.85;;;0.57;;
47804;SDS011;33568;45.286;9.900;2023-04-24T14:30:52;1.75;;;0.52;;
47804;SDS011;33568;45.286;9.900;2023-04-24T14:33:19;1.17;;;0.60;;
47804;SDS011;33568;45.286;9.900;2023-04-24T14:35:45;0.40;;;0.40;;
47804;SDS011;33568;45.286;9.900;2023-04-24T14:38:12;0.45;;;0.45;;
47804;SDS011;33568;45.286;9.900;2023-04-24T14:40:39;0.60;;;0.60;;
47804;SDS011;33568;45.286;9.900;2023-04-24T14:43:06;0.70;;;0.50;;
47804;SDS011;33568;45.286;9.900;2023-04-24T14:45:32;0.50;;;0.43;;
47804;SDS011;33568;45.286;9.900;2023-04-24T14:47:59;0.75;;;0.45;;
47804;SDS011;33568;45.286;9.900;2023-04-24T14:50:25;0.63;;;0.38;;
47804;SDS011;33568;45.286;9.900;2023-04-24T14:52:55;0.45;;;0.45;;
47804;SDS011;33568;45.286;9.900;2023-04-24T14:55:25;0.85;;;0.60;;
47804;SDS011;33568;45.286;9.900;2023-04-24T14:57:52;0.80;;;0.50;;
47804;SDS011;33568;45.286;9.900;2023-04-24T15:00:19;0.52;;;0.52;;
47804;SDS011;33568;45.286;9.900;2023-04-24T15:02:46;0.40;;;0.40;;
47804;SDS011;33568;45.286;9.900;2023-04-24T15:05:12;0.40;;;0.40;;
47804;SDS011;33568;45.286;9.900;2023-04-24T15:07:38;0.55;;;0.55;;
47804;SDS011;33568;45.286;9.900;2023-04-24T15:10:07;1.45;;;0.52;;
47804;SDS011;33568;45.286;9.900;2023-04-24T15:12:34;0.43;;;0.40;;
47804;SDS011;33568;45.286;9.900;2023-04-24T15:15:00;0.45;;;0.40;;
47804;SDS011;33568;45.286;9.900;2023-04-24T15:17:29;0.50;;;0.50;;
47804;SDS011;33568;45.286;9.900;2023-04-24T15:19:55;0.65;;;0.60;;
47804;SDS011;33568;45.286;9.900;2023-04-24T15:22:22;2.92;;;0.50;;
47804;SDS011;33568;45.286;9.900;2023-04-24T15:24:49;0.40;;;0.40;;
47804;SDS011;33568;45.286;9.900;2023-04-24T15:27:15;0.47;;;0.47;;
47804;SDS011;33568;45.286;9.900;2023-04-24T15:29:41;0.43;;;0.43;;
47804;SDS011;33568;45.286;9.900;2023-04-24T15:32:08;0.70;;;0.55;;
47804;SDS011;33568;45.286;9.900;2023-04-24T15:34:34;0.60;;;0.60;;
47804;SDS011;33568;45.286;9.900;2023-04-24T15:37:01;0.60;;;0.43;;
47804;SDS011;33568;45.286;9.900;2023-04-24T15:39:27;1.35;;;0.80;;
47804;SDS011;33568;45.286;9.900;2023-04-24T15:41:54;4.22;;;0.60;;
47804;SDS011;33568;45.286;9.900;2023-04-24T15:44:21;0.40;;;0.40;;
47804;SDS011;33568;45.286;9.900;2023-04-24T15:46:47;0.50;;;0.50;;
47804;SDS011;33568;45.286;9.900;2023-04-24T15:49:14;0.73;;;0.50;;
47804;SDS011;33568;45.286;9.900;2023-04-24T15:51:40;0.57;;;0.57;;
47804;SDS011;33568;45.286;9.900;2023-04-24T15:54:07;0.65;;;0.50;;
47804;SDS011;33568;45.286;9.900;2023-04-24T15:56:33;0.65;;;0.60;;
47804;SDS011;33568;45.286;9.900;2023-04-24T15:59:01;0.60;;;0.60;;
47804;SDS011;33568;45.286;9.900;2023-04-24T16:01:29;5.65;;;0.80;;
47804;SDS011;33568;45.286;9.900;2023-04-24T16:03:56;0.77;;;0.57;;
47804;SDS011;33568;45.286;9.900;2023-04-24T16:06:22;2.20;;;0.80;;
47804;SDS011;33568;45.286;9.900;2023-04-24T16:08:50;0.77;;;0.60;;
47804;SDS011;33568;45.286;9.900;2023-04-24T16:11:16;0.93;;;0.43;;
47804;SDS011;33568;45.286;9.900;2023-04-24T16:13:43;0.75;;;0.50;;
47804;SDS011;33568;45.286;9.900;2023-04-24T16:16:09;0.40;;;0.40;;
47804;SDS011;33568;45.286;9.900;2023-04-24T16:18:36;0.30;;;0.30;;
47804;SDS011;33568;45.286;9.900;2023-04-24T16:21:03;1.15;;;0.55;;
47804;SDS011;33568;45.286;9.900;2023-04-24T16:23:29;2.53;;;0.50;;
47804;SDS011;33568;45.286;9.900;2023-04-24T16:25:56;0.40;;;0.40;;
47804;SDS011;33568;45.286;9.900;2023-04-24T16:28:22;4.90;;;0.50;;
47804;SDS011;33568;45.286;9.900;2023-04-24T16:30:48;0.50;;;0.50;;
47804;SDS011;33568;45.286;9.900;2023-04-24T16:33:15;0.80;;;0.80;;
47804;SDS011;33568;45.286;9.900;2023-04-24T16:35:41;0.80;;;0.60;;
47804;SDS011;33568;45.286;9.900;2023-04-24T16:38:09;0.52;;;0.47;;
47804;SDS011;33568;45.286;9.900;2023-04-24T16:40:36;1.48;;;0.70;;
47804;SDS011;33568;45.286;9.900;2023-04-24T16:43:02;0.52;;;0.52;;